sensor_id;sensor_type;location;lat;lon;timestamp;P1;durP1;ratioP1;P2;durP2;ratioP2
42192;SDS011;52467;40.114;18.306;2023-03-11T00:00:35;16.75;;;2.38;;
42192;SDS011;52467;40.114;18.306;2023-03-11T00:03:05;11.45;;;2.55;;
42192;SDS011;52467;40.114;18.306;2023-03-11T00:05:35;15.97;;;2.60;;
42192;SDS011;52467;40.114;18.306;2023-03-11T00:08:04;20.70;;;3.10;;
42192;SDS011;52467;40.114;18.306;2023-03-11T00:10:34;15.33;;;2.90;;
42192;SDS011;52467;40.114;18.306;2023-03-11T00:13:03;14.02;;;3.10;;
42192;SDS011;52467;40.114;18.306;2023-03-11T00:15:32;15.10;;;3.20;;
42192;SDS011;52467;40.114;18.306;2023-03-11T00:17:59;14.57;;;2.65;;
42192;SDS011;52467;40.114;18.306;2023-03-11T00:22:59;20.53;;;3.20;;
42192;SDS011;52467;40.114;18.306;2023-03-11T00:25:28;16.10;;;2.75;;
42192;SDS011;52467;40.114;18.306;2023-03-11T00:27:56;21.90;;;4.65;;
42192;SDS011;52467;40.114;18.306;2023-03-11T00:30:24;19.65;;;4.40;;
42192;SDS011;52467;40.114;18.306;2023-03-11T00:32:53;21.83;;;4.97;;
42192;SDS011;52467;40.114;18.306;2023-03-11T00:35:22;16.42;;;3.25;;
42192;SDS011;52467;40.114;18.306;2023-03-11T00:37:56;12.73;;;2.92;;
42192;SDS011;52467;40.114;18.306;2023-03-11T00:40:26;14.48;;;2.80;;
42192;SDS011;52467;40.114;18.306;2023-03-11T00:42:55;14.27;;;2.50;;
42192;SDS011;52467;40.114;18.306;2023-03-11T00:45:22;21.65;;;3.40;;
42192;SDS011;52467;40.114;18.306;2023-03-11T00:47:50;16.25;;;2.90;;
42192;SDS011;52467;40.114;18.306;2023-03-11T00:50:20;17.75;;;3.35;;
42192;SDS011;52467;40.114;18.306;2023-03-11T00:52:49;17.63;;;2.97;;
42192;SDS011;52467;40.114;18.306;2023-03-11T00:55:21;15.98;;;2.72;;
42192;SDS011;52467;40.114;18.306;2023-03-11T00:57:50;15.30;;;2.90;;
42192;SDS011;52467;40.114;18.306;2023-03-11T01:00:20;11.02;;;2.22;;
42192;SDS011;52467;40.114;18.306;2023-03-11T01:02:51;20.08;;;2.65;;
42192;SDS011;52467;40.114;18.306;2023-03-11T01:05:23;12.07;;;3.13;;
42192;SDS011;52467;40.114;18.306;2023-03-11T01:07:54;10.95;;;2.42;;
42192;SDS011;52467;40.114;18.306;2023-03-11T01:10:21;14.38;;;2.67;;
42192;SDS011;52467;40.114;18.306;2023-03-11T01:12:51;14.82;;;2.40;;
42192;SDS011;52467;40.114;18.306;2023-03-11T01:15:22;13.30;;;2.90;;
42192;SDS011;52467;40.114;18.306;2023-03-11T01:17:55;14.30;;;2.42;;
42192;SDS011;52467;40.114;18.306;2023-03-11T01:20:22;15.88;;;2.42;;
42192;SDS011;52467;40.114;18.306;2023-03-11T01:22:50;17.90;;;2.33;;
42192;SDS011;52467;40.114;18.306;2023-03-11T01:25:18;13.50;;;2.33;;
42192;SDS011;52467;40.114;18.306;2023-03-11T01:27:49;13.23;;;2.43;;
42192;SDS011;52467;40.114;18.306;2023-03-11T01:30:18;11.32;;;2.03;;
42192;SDS011;52467;40.114;18.306;2023-03-11T01:32:47;13.27;;;2.05;;
42192;SDS011;52467;40.114;18.306;2023-03-11T01:35:16;14.10;;;2.50;;
42192;SDS011;52467;40.114;18.306;2023-03-11T01:37:45;15.07;;;2.67;;
42192;SDS011;52467;40.114;18.306;2023-03-11T01:40:21;15.63;;;2.43;;
42192;SDS011;52467;40.114;18.306;2023-03-11T01:43:03;13.70;;;2.38;;
42192;SDS011;52467;40.114;18.306;2023-03-11T01:48:18;15.20;;;2.33;;
42192;SDS011;52467;40.114;18.306;2023-03-11T01:50:47;17.20;;;2.63;;
42192;SDS011;52467;40.114;18.306;2023-03-11T01:53:16;14.60;;;2.80;;
42192;SDS011;52467;40.114;18.306;2023-03-11T01:55:45;18.00;;;2.72;;
42192;SDS011;52467;40.114;18.306;2023-03-11T01:58:15;16.30;;;2.70;;
42192;SDS011;52467;40.114;18.306;2023-03-11T02:00:45;14.90;;;2.72;;
42192;SDS011;52467;40.114;18.306;2023-03-11T02:03:17;12.15;;;2.30;;
42192;SDS011;52467;40.114;18.306;2023-03-11T02:05:51;18.40;;;3.47;;
42192;SDS011;52467;40.114;18.306;2023-03-11T02:08:20;17.58;;;2.47;;
42192;SDS011;52467;40.114;18.306;2023-03-11T02:10:48;14.48;;;2.90;;
42192;SDS011;52467;40.114;18.306;2023-03-11T02:13:18;15.75;;;2.42;;
42192;SDS011;52467;40.114;18.306;2023-03-11T02:15:45;14.35;;;2.75;;
42192;SDS011;52467;40.114;18.306;2023-03-11T02:18:13;19.65;;;3.30;;
42192;SDS011;52467;40.114;18.306;2023-03-11T02:20:50;17.50;;;3.42;;
42192;SDS011;52467;40.114;18.306;2023-03-11T02:23:23;23.55;;;3.70;;
42192;SDS011;52467;40.114;18.306;2023-03-11T02:26:36;18.55;;;3.42;;
42192;SDS011;52467;40.114;18.306;2023-03-11T02:28:49;21.37;;;3.13;;
42192;SDS011;52467;40.114;18.306;2023-03-11T02:31:17;27.17;;;4.13;;
42192;SDS011;52467;40.114;18.306;2023-03-11T02:33:45;17.42;;;3.15;;
42192;SDS011;52467;40.114;18.306;2023-03-11T02:36:37;19.00;;;3.40;;
42192;SDS011;52467;40.114;18.306;2023-03-11T02:39:09;23.00;;;3.50;;
42192;SDS011;52467;40.114;18.306;2023-03-11T02:41:39;23.30;;;3.45;;
42192;SDS011;52467;40.114;18.306;2023-03-11T02:44:11;24.27;;;3.90;;
42192;SDS011;52467;40.114;18.306;2023-03-11T02:46:40;23.95;;;4.00;;
42192;SDS011;52467;40.114;18.306;2023-03-11T02:49:10;22.95;;;3.47;;
42192;SDS011;52467;40.114;18.306;2023-03-11T02:51:37;27.90;;;3.75;;
42192;SDS011;52467;40.114;18.306;2023-03-11T02:54:05;26.88;;;4.00;;
42192;SDS011;52467;40.114;18.306;2023-03-11T02:56:34;23.93;;;3.43;;
42192;SDS011;52467;40.114;18.306;2023-03-11T02:59:02;22.42;;;3.65;;
42192;SDS011;52467;40.114;18.306;2023-03-11T03:01:29;25.23;;;4.13;;
42192;SDS011;52467;40.114;18.306;2023-03-11T03:03:57;24.40;;;3.88;;
42192;SDS011;52467;40.114;18.306;2023-03-11T03:06:25;27.33;;;4.07;;
42192;SDS011;52467;40.114;18.306;2023-03-11T03:08:54;29.05;;;4.43;;
42192;SDS011;52467;40.114;18.306;2023-03-11T03:11:22;26.08;;;3.83;;
42192;SDS011;52467;40.114;18.306;2023-03-11T03:13:49;23.38;;;3.60;;
42192;SDS011;52467;40.114;18.306;2023-03-11T03:16:17;34.67;;;4.65;;
42192;SDS011;52467;40.114;18.306;2023-03-11T03:18:46;25.92;;;3.60;;
42192;SDS011;52467;40.114;18.306;2023-03-11T03:21:13;24.80;;;3.97;;
42192;SDS011;52467;40.114;18.306;2023-03-11T03:23:41;35.47;;;4.75;;
42192;SDS011;52467;40.114;18.306;2023-03-11T03:26:10;26.40;;;5.13;;
42192;SDS011;52467;40.114;18.306;2023-03-11T03:28:41;26.52;;;4.30;;
42192;SDS011;52467;40.114;18.306;2023-03-11T03:31:09;33.35;;;4.38;;
42192;SDS011;52467;40.114;18.306;2023-03-11T03:33:39;28.30;;;5.22;;
42192;SDS011;52467;40.114;18.306;2023-03-11T03:36:07;34.30;;;4.78;;
42192;SDS011;52467;40.114;18.306;2023-03-11T03:38:45;33.15;;;5.00;;
42192;SDS011;52467;40.114;18.306;2023-03-11T03:41:13;31.77;;;5.03;;
42192;SDS011;52467;40.114;18.306;2023-03-11T03:43:44;29.45;;;4.20;;
42192;SDS011;52467;40.114;18.306;2023-03-11T03:46:11;32.53;;;5.35;;
42192;SDS011;52467;40.114;18.306;2023-03-11T03:48:43;32.13;;;5.10;;
42192;SDS011;52467;40.114;18.306;2023-03-11T03:51:11;25.77;;;4.43;;
42192;SDS011;52467;40.114;18.306;2023-03-11T03:53:47;36.67;;;4.80;;
42192;SDS011;52467;40.114;18.306;2023-03-11T03:56:15;33.55;;;5.32;;
42192;SDS011;52467;40.114;18.306;2023-03-11T03:58:43;34.03;;;5.03;;
42192;SDS011;52467;40.114;18.306;2023-03-11T04:01:12;32.00;;;5.65;;
42192;SDS011;52467;40.114;18.306;2023-03-11T04:03:40;33.25;;;4.82;;
42192;SDS011;52467;40.114;18.306;2023-03-11T04:08:41;33.17;;;4.82;;
42192;SDS011;52467;40.114;18.306;2023-03-11T04:11:10;38.00;;;5.95;;
42192;SDS011;52467;40.114;18.306;2023-03-11T04:13:38;41.70;;;5.18;;
42192;SDS011;52467;40.114;18.306;2023-03-11T04:16:06;36.78;;;5.65;;
42192;SDS011;52467;40.114;18.306;2023-03-11T04:18:34;31.92;;;5.22;;
42192;SDS011;52467;40.114;18.306;2023-03-11T04:21:05;36.85;;;5.70;;
42192;SDS011;52467;40.114;18.306;2023-03-11T04:23:33;26.73;;;5.50;;
42192;SDS011;52467;40.114;18.306;2023-03-11T04:26:01;36.57;;;5.77;;
42192;SDS011;52467;40.114;18.306;2023-03-11T04:28:29;33.85;;;5.35;;
42192;SDS011;52467;40.114;18.306;2023-03-11T04:30:57;38.38;;;5.32;;
42192;SDS011;52467;40.114;18.306;2023-03-11T04:33:25;40.30;;;6.18;;
42192;SDS011;52467;40.114;18.306;2023-03-11T04:35:53;32.72;;;5.90;;
42192;SDS011;52467;40.114;18.306;2023-03-11T04:38:20;40.90;;;5.43;;
42192;SDS011;52467;40.114;18.306;2023-03-11T04:40:48;43.15;;;5.90;;
42192;SDS011;52467;40.114;18.306;2023-03-11T04:43:16;38.37;;;5.50;;
42192;SDS011;52467;40.114;18.306;2023-03-11T04:45:44;33.78;;;5.18;;
42192;SDS011;52467;40.114;18.306;2023-03-11T04:48:11;40.40;;;7.03;;
42192;SDS011;52467;40.114;18.306;2023-03-11T04:50:40;34.65;;;6.03;;
42192;SDS011;52467;40.114;18.306;2023-03-11T04:53:07;37.33;;;6.18;;
42192;SDS011;52467;40.114;18.306;2023-03-11T04:55:35;33.47;;;5.68;;
42192;SDS011;52467;40.114;18.306;2023-03-11T04:58:03;43.67;;;6.72;;
42192;SDS011;52467;40.114;18.306;2023-03-11T05:00:32;45.30;;;5.75;;
42192;SDS011;52467;40.114;18.306;2023-03-11T05:03:05;32.30;;;5.40;;
42192;SDS011;52467;40.114;18.306;2023-03-11T05:05:32;39.37;;;5.40;;
42192;SDS011;52467;40.114;18.306;2023-03-11T05:08:01;45.47;;;5.43;;
42192;SDS011;52467;40.114;18.306;2023-03-11T05:10:30;35.05;;;5.43;;
42192;SDS011;52467;40.114;18.306;2023-03-11T05:13:02;35.58;;;5.20;;
42192;SDS011;52467;40.114;18.306;2023-03-11T05:15:33;35.35;;;6.28;;
42192;SDS011;52467;40.114;18.306;2023-03-11T05:18:03;35.53;;;5.53;;
42192;SDS011;52467;40.114;18.306;2023-03-11T05:20:32;38.35;;;6.40;;
42192;SDS011;52467;40.114;18.306;2023-03-11T05:23:00;32.70;;;5.80;;
42192;SDS011;52467;40.114;18.306;2023-03-11T05:25:30;48.10;;;6.43;;
42192;SDS011;52467;40.114;18.306;2023-03-11T05:27:58;40.15;;;5.72;;
42192;SDS011;52467;40.114;18.306;2023-03-11T05:30:26;37.25;;;6.00;;
42192;SDS011;52467;40.114;18.306;2023-03-11T05:32:56;37.42;;;5.57;;
42192;SDS011;52467;40.114;18.306;2023-03-11T05:35:24;39.33;;;5.63;;
42192;SDS011;52467;40.114;18.306;2023-03-11T05:37:51;35.22;;;6.00;;
42192;SDS011;52467;40.114;18.306;2023-03-11T05:40:22;32.58;;;4.97;;
42192;SDS011;52467;40.114;18.306;2023-03-11T05:42:50;39.97;;;6.10;;
42192;SDS011;52467;40.114;18.306;2023-03-11T05:45:18;37.28;;;5.38;;
42192;SDS011;52467;40.114;18.306;2023-03-11T05:47:48;36.35;;;5.60;;
42192;SDS011;52467;40.114;18.306;2023-03-11T05:50:16;39.67;;;5.83;;
42192;SDS011;52467;40.114;18.306;2023-03-11T05:52:45;35.73;;;5.63;;
42192;SDS011;52467;40.114;18.306;2023-03-11T05:55:13;35.42;;;5.88;;
42192;SDS011;52467;40.114;18.306;2023-03-11T05:57:42;36.05;;;5.75;;
42192;SDS011;52467;40.114;18.306;2023-03-11T06:00:10;38.17;;;5.68;;
42192;SDS011;52467;40.114;18.306;2023-03-11T06:02:41;31.00;;;6.05;;
42192;SDS011;52467;40.114;18.306;2023-03-11T06:05:12;40.72;;;5.53;;
42192;SDS011;52467;40.114;18.306;2023-03-11T06:07:42;41.80;;;6.17;;
42192;SDS011;52467;40.114;18.306;2023-03-11T06:10:10;38.33;;;5.72;;
42192;SDS011;52467;40.114;18.306;2023-03-11T06:12:38;34.97;;;5.27;;
42192;SDS011;52467;40.114;18.306;2023-03-11T06:15:21;36.25;;;5.53;;
42192;SDS011;52467;40.114;18.306;2023-03-11T06:17:48;34.35;;;5.72;;
42192;SDS011;52467;40.114;18.306;2023-03-11T06:20:16;35.73;;;5.07;;
42192;SDS011;52467;40.114;18.306;2023-03-11T06:22:46;37.33;;;6.50;;
42192;SDS011;52467;40.114;18.306;2023-03-11T06:25:14;30.52;;;5.57;;
42192;SDS011;52467;40.114;18.306;2023-03-11T06:27:43;36.67;;;6.32;;
42192;SDS011;52467;40.114;18.306;2023-03-11T06:30:11;36.05;;;6.05;;
42192;SDS011;52467;40.114;18.306;2023-03-11T06:32:47;39.10;;;6.38;;
42192;SDS011;52467;40.114;18.306;2023-03-11T06:35:15;35.57;;;5.53;;
42192;SDS011;52467;40.114;18.306;2023-03-11T06:37:42;37.83;;;6.10;;
42192;SDS011;52467;40.114;18.306;2023-03-11T06:40:10;39.55;;;6.47;;
42192;SDS011;52467;40.114;18.306;2023-03-11T06:42:38;40.20;;;5.68;;
42192;SDS011;52467;40.114;18.306;2023-03-11T06:45:07;30.77;;;5.83;;
42192;SDS011;52467;40.114;18.306;2023-03-11T06:47:36;33.95;;;5.63;;
42192;SDS011;52467;40.114;18.306;2023-03-11T06:50:04;32.90;;;4.85;;
42192;SDS011;52467;40.114;18.306;2023-03-11T06:52:34;43.22;;;5.07;;
42192;SDS011;52467;40.114;18.306;2023-03-11T06:55:05;34.35;;;5.82;;
42192;SDS011;52467;40.114;18.306;2023-03-11T06:57:33;36.97;;;5.07;;
42192;SDS011;52467;40.114;18.306;2023-03-11T07:00:04;26.65;;;5.65;;
42192;SDS011;52467;40.114;18.306;2023-03-11T07:02:34;43.00;;;6.10;;
42192;SDS011;52467;40.114;18.306;2023-03-11T07:05:02;32.15;;;5.28;;
42192;SDS011;52467;40.114;18.306;2023-03-11T07:07:30;41.20;;;7.00;;
42192;SDS011;52467;40.114;18.306;2023-03-11T07:09:59;28.25;;;4.97;;
42192;SDS011;52467;40.114;18.306;2023-03-11T07:12:27;35.20;;;5.60;;
42192;SDS011;52467;40.114;18.306;2023-03-11T07:14:55;31.30;;;4.85;;
42192;SDS011;52467;40.114;18.306;2023-03-11T07:17:23;44.40;;;5.60;;
42192;SDS011;52467;40.114;18.306;2023-03-11T07:19:52;33.30;;;5.80;;
42192;SDS011;52467;40.114;18.306;2023-03-11T07:22:19;31.85;;;5.05;;
42192;SDS011;52467;40.114;18.306;2023-03-11T07:24:47;34.55;;;6.20;;
42192;SDS011;52467;40.114;18.306;2023-03-11T07:27:15;34.85;;;5.60;;
42192;SDS011;52467;40.114;18.306;2023-03-11T07:29:43;25.60;;;5.30;;
42192;SDS011;52467;40.114;18.306;2023-03-11T07:32:10;34.25;;;5.28;;
42192;SDS011;52467;40.114;18.306;2023-03-11T07:34:37;41.25;;;5.40;;
42192;SDS011;52467;40.114;18.306;2023-03-11T07:37:05;26.50;;;4.95;;
42192;SDS011;52467;40.114;18.306;2023-03-11T07:39:32;34.55;;;5.95;;
42192;SDS011;52467;40.114;18.306;2023-03-11T07:41:59;40.67;;;5.57;;
42192;SDS011;52467;40.114;18.306;2023-03-11T07:44:33;32.58;;;4.85;;
42192;SDS011;52467;40.114;18.306;2023-03-11T07:47:01;32.73;;;5.40;;
42192;SDS011;52467;40.114;18.306;2023-03-11T07:49:30;39.53;;;5.53;;
42192;SDS011;52467;40.114;18.306;2023-03-11T07:51:57;31.75;;;5.18;;
42192;SDS011;52467;40.114;18.306;2023-03-11T07:54:25;33.53;;;5.97;;
42192;SDS011;52467;40.114;18.306;2023-03-11T07:56:52;32.08;;;6.00;;
42192;SDS011;52467;40.114;18.306;2023-03-11T07:59:20;38.53;;;5.40;;
42192;SDS011;52467;40.114;18.306;2023-03-11T08:01:47;32.85;;;5.63;;
42192;SDS011;52467;40.114;18.306;2023-03-11T08:04:16;36.28;;;5.93;;
42192;SDS011;52467;40.114;18.306;2023-03-11T08:06:46;28.38;;;5.13;;
42192;SDS011;52467;40.114;18.306;2023-03-11T08:09:14;32.53;;;6.15;;
42192;SDS011;52467;40.114;18.306;2023-03-11T08:11:41;33.90;;;4.78;;
42192;SDS011;52467;40.114;18.306;2023-03-11T08:14:09;32.75;;;5.78;;
42192;SDS011;52467;40.114;18.306;2023-03-11T08:16:37;38.80;;;4.82;;
42192;SDS011;52467;40.114;18.306;2023-03-11T08:19:06;39.78;;;5.63;;
42192;SDS011;52467;40.114;18.306;2023-03-11T08:21:33;39.45;;;6.20;;
42192;SDS011;52467;40.114;18.306;2023-03-11T08:24:00;30.27;;;6.07;;
42192;SDS011;52467;40.114;18.306;2023-03-11T08:26:30;33.22;;;5.45;;
42192;SDS011;52467;40.114;18.306;2023-03-11T08:28:58;32.97;;;5.07;;
42192;SDS011;52467;40.114;18.306;2023-03-11T08:31:27;36.53;;;5.10;;
42192;SDS011;52467;40.114;18.306;2023-03-11T08:33:56;31.67;;;5.37;;
42192;SDS011;52467;40.114;18.306;2023-03-11T08:36:26;28.75;;;4.75;;
42192;SDS011;52467;40.114;18.306;2023-03-11T08:38:54;27.42;;;4.68;;
42192;SDS011;52467;40.114;18.306;2023-03-11T08:41:21;30.02;;;5.53;;
42192;SDS011;52467;40.114;18.306;2023-03-11T08:43:48;34.15;;;4.85;;
42192;SDS011;52467;40.114;18.306;2023-03-11T08:46:23;37.72;;;5.32;;
42192;SDS011;52467;40.114;18.306;2023-03-11T08:48:55;36.13;;;5.63;;
42192;SDS011;52467;40.114;18.306;2023-03-11T08:51:26;32.17;;;5.63;;
42192;SDS011;52467;40.114;18.306;2023-03-11T08:53:54;30.03;;;4.90;;
42192;SDS011;52467;40.114;18.306;2023-03-11T08:56:22;31.67;;;4.80;;
42192;SDS011;52467;40.114;18.306;2023-03-11T08:58:49;33.95;;;5.78;;
42192;SDS011;52467;40.114;18.306;2023-03-11T09:01:17;36.05;;;5.32;;
42192;SDS011;52467;40.114;18.306;2023-03-11T09:03:45;35.13;;;5.40;;
42192;SDS011;52467;40.114;18.306;2023-03-11T09:06:13;25.83;;;4.22;;
42192;SDS011;52467;40.114;18.306;2023-03-11T09:08:41;27.85;;;4.45;;
42192;SDS011;52467;40.114;18.306;2023-03-11T09:11:09;28.20;;;5.00;;
42192;SDS011;52467;40.114;18.306;2023-03-11T09:13:39;31.30;;;4.75;;
42192;SDS011;52467;40.114;18.306;2023-03-11T09:16:14;25.30;;;4.32;;
42192;SDS011;52467;40.114;18.306;2023-03-11T09:18:42;33.63;;;5.10;;
42192;SDS011;52467;40.114;18.306;2023-03-11T09:21:10;31.13;;;4.65;;
42192;SDS011;52467;40.114;18.306;2023-03-11T09:23:37;34.40;;;5.07;;
42192;SDS011;52467;40.114;18.306;2023-03-11T09:26:07;30.52;;;4.53;;
42192;SDS011;52467;40.114;18.306;2023-03-11T09:28:34;28.30;;;4.65;;
42192;SDS011;52467;40.114;18.306;2023-03-11T09:31:01;27.40;;;5.05;;
42192;SDS011;52467;40.114;18.306;2023-03-11T09:33:29;30.57;;;4.87;;
42192;SDS011;52467;40.114;18.306;2023-03-11T09:35:57;33.00;;;4.38;;
42192;SDS011;52467;40.114;18.306;2023-03-11T09:38:24;32.30;;;4.78;;
42192;SDS011;52467;40.114;18.306;2023-03-11T09:41:02;30.52;;;4.85;;
42192;SDS011;52467;40.114;18.306;2023-03-11T09:49:28;28.52;;;4.15;;
42192;SDS011;52467;40.114;18.306;2023-03-11T09:52:13;22.42;;;4.80;;
42192;SDS011;52467;40.114;18.306;2023-03-11T09:54:45;23.23;;;3.45;;
42192;SDS011;52467;40.114;18.306;2023-03-11T09:57:33;29.33;;;4.80;;
42192;SDS011;52467;40.114;18.306;2023-03-11T10:00:04;28.92;;;4.30;;
42192;SDS011;52467;40.114;18.306;2023-03-11T10:02:38;25.23;;;4.47;;
42192;SDS011;52467;40.114;18.306;2023-03-11T10:05:13;25.98;;;4.10;;
42192;SDS011;52467;40.114;18.306;2023-03-11T10:07:46;22.80;;;4.53;;
42192;SDS011;52467;40.114;18.306;2023-03-11T10:10:19;21.13;;;3.75;;
42192;SDS011;52467;40.114;18.306;2023-03-11T10:12:51;21.83;;;4.30;;
42192;SDS011;52467;40.114;18.306;2023-03-11T10:26:06;23.95;;;3.50;;
42192;SDS011;52467;40.114;18.306;2023-03-11T10:31:28;20.40;;;3.33;;
42192;SDS011;52467;40.114;18.306;2023-03-11T10:34:13;14.63;;;3.17;;
42192;SDS011;52467;40.114;18.306;2023-03-11T10:39:35;19.08;;;3.83;;
42192;SDS011;52467;40.114;18.306;2023-03-11T10:42:13;16.73;;;3.17;;
42192;SDS011;52467;40.114;18.306;2023-03-11T10:44:45;20.38;;;3.10;;
42192;SDS011;52467;40.114;18.306;2023-03-11T10:47:14;12.85;;;2.92;;
42192;SDS011;52467;40.114;18.306;2023-03-11T10:49:43;18.20;;;3.53;;
42192;SDS011;52467;40.114;18.306;2023-03-11T10:52:11;12.87;;;3.33;;
42192;SDS011;52467;40.114;18.306;2023-03-11T10:54:40;19.77;;;3.30;;
42192;SDS011;52467;40.114;18.306;2023-03-11T11:00:27;16.25;;;2.80;;
42192;SDS011;52467;40.114;18.306;2023-03-11T11:02:55;19.02;;;3.65;;
42192;SDS011;52467;40.114;18.306;2023-03-11T11:05:31;21.23;;;3.60;;
42192;SDS011;52467;40.114;18.306;2023-03-11T11:08:07;18.60;;;3.42;;
42192;SDS011;52467;40.114;18.306;2023-03-11T11:10:47;19.17;;;2.90;;
42192;SDS011;52467;40.114;18.306;2023-03-11T11:13:20;15.07;;;3.58;;
42192;SDS011;52467;40.114;18.306;2023-03-11T11:18:34;16.77;;;3.10;;
42192;SDS011;52467;40.114;18.306;2023-03-11T11:21:10;18.48;;;2.88;;
42192;SDS011;52467;40.114;18.306;2023-03-11T11:23:47;11.02;;;2.30;;
42192;SDS011;52467;40.114;18.306;2023-03-11T11:26:21;18.38;;;2.97;;
42192;SDS011;52467;40.114;18.306;2023-03-11T11:31:36;15.75;;;2.38;;
42192;SDS011;52467;40.114;18.306;2023-03-11T11:37:01;18.30;;;3.10;;
42192;SDS011;52467;40.114;18.306;2023-03-11T11:39:43;18.70;;;3.08;;
42192;SDS011;52467;40.114;18.306;2023-03-11T11:42:20;11.43;;;2.40;;
42192;SDS011;52467;40.114;18.306;2023-03-11T11:44:50;16.00;;;2.40;;
42192;SDS011;52467;40.114;18.306;2023-03-11T11:47:32;15.43;;;2.75;;
42192;SDS011;52467;40.114;18.306;2023-03-11T11:50:02;12.57;;;2.47;;
42192;SDS011;52467;40.114;18.306;2023-03-11T11:52:35;10.30;;;2.20;;
42192;SDS011;52467;40.114;18.306;2023-03-11T11:55:08;8.52;;;2.28;;
42192;SDS011;52467;40.114;18.306;2023-03-11T11:57:50;13.27;;;2.20;;
42192;SDS011;52467;40.114;18.306;2023-03-11T12:00:20;10.85;;;1.75;;
42192;SDS011;52467;40.114;18.306;2023-03-11T12:11:05;12.88;;;2.35;;
42192;SDS011;52467;40.114;18.306;2023-03-11T12:13:45;12.32;;;2.00;;
42192;SDS011;52467;40.114;18.306;2023-03-11T12:27:30;7.67;;;1.57;;
42192;SDS011;52467;40.114;18.306;2023-03-11T12:29:59;10.35;;;1.65;;
42192;SDS011;52467;40.114;18.306;2023-03-11T12:32:38;10.82;;;1.95;;
42192;SDS011;52467;40.114;18.306;2023-03-11T12:41:02;7.88;;;1.50;;
42192;SDS011;52467;40.114;18.306;2023-03-11T12:46:00;8.18;;;1.90;;
42192;SDS011;52467;40.114;18.306;2023-03-11T12:50:59;8.85;;;1.83;;
42192;SDS011;52467;40.114;18.306;2023-03-11T12:54:19;11.20;;;1.80;;
42192;SDS011;52467;40.114;18.306;2023-03-11T12:56:27;8.70;;;1.75;;
42192;SDS011;52467;40.114;18.306;2023-03-11T13:02:22;9.45;;;1.88;;
42192;SDS011;52467;40.114;18.306;2023-03-11T13:04:58;7.50;;;1.35;;
42192;SDS011;52467;40.114;18.306;2023-03-11T13:07:46;5.43;;;1.50;;
42192;SDS011;52467;40.114;18.306;2023-03-11T13:18:41;9.48;;;1.85;;
42192;SDS011;52467;40.114;18.306;2023-03-11T13:26:45;3.07;;;0.90;;
42192;SDS011;52467;40.114;18.306;2023-03-11T13:37:39;7.85;;;1.30;;
42192;SDS011;52467;40.114;18.306;2023-03-11T13:40:19;9.60;;;1.50;;
42192;SDS011;52467;40.114;18.306;2023-03-11T13:43:19;6.73;;;1.30;;
42192;SDS011;52467;40.114;18.306;2023-03-11T13:45:52;6.60;;;1.27;;
42192;SDS011;52467;40.114;18.306;2023-03-11T13:48:27;10.05;;;1.20;;
42192;SDS011;52467;40.114;18.306;2023-03-11T13:51:01;9.68;;;1.63;;
42192;SDS011;52467;40.114;18.306;2023-03-11T13:53:33;8.18;;;1.27;;
42192;SDS011;52467;40.114;18.306;2023-03-11T13:56:16;9.13;;;1.73;;
42192;SDS011;52467;40.114;18.306;2023-03-11T13:59:15;8.07;;;1.48;;
42192;SDS011;52467;40.114;18.306;2023-03-11T14:01:49;8.38;;;1.48;;
42192;SDS011;52467;40.114;18.306;2023-03-11T14:04:22;7.47;;;1.50;;
42192;SDS011;52467;40.114;18.306;2023-03-11T14:06:58;10.27;;;1.38;;
42192;SDS011;52467;40.114;18.306;2023-03-11T14:09:26;7.53;;;1.60;;
42192;SDS011;52467;40.114;18.306;2023-03-11T14:11:54;6.93;;;1.30;;
42192;SDS011;52467;40.114;18.306;2023-03-11T14:14:35;9.98;;;1.83;;
42192;SDS011;52467;40.114;18.306;2023-03-11T14:17:15;9.38;;;1.75;;
42192;SDS011;52467;40.114;18.306;2023-03-11T14:22:30;7.72;;;1.33;;
42192;SDS011;52467;40.114;18.306;2023-03-11T14:24:59;6.18;;;1.20;;
42192;SDS011;52467;40.114;18.306;2023-03-11T14:27:29;8.70;;;1.95;;
42192;SDS011;52467;40.114;18.306;2023-03-11T14:29:56;7.33;;;1.30;;
42192;SDS011;52467;40.114;18.306;2023-03-11T14:34:55;7.18;;;1.45;;
42192;SDS011;52467;40.114;18.306;2023-03-11T14:37:33;10.30;;;1.40;;
42192;SDS011;52467;40.114;18.306;2023-03-11T14:40:03;8.07;;;1.40;;
42192;SDS011;52467;40.114;18.306;2023-03-11T14:42:47;6.43;;;1.65;;
42192;SDS011;52467;40.114;18.306;2023-03-11T14:45:23;6.85;;;1.17;;
42192;SDS011;52467;40.114;18.306;2023-03-11T14:47:54;7.97;;;1.45;;
42192;SDS011;52467;40.114;18.306;2023-03-11T14:50:29;8.98;;;1.38;;
42192;SDS011;52467;40.114;18.306;2023-03-11T15:00:46;9.38;;;1.85;;
42192;SDS011;52467;40.114;18.306;2023-03-11T15:03:37;10.87;;;1.60;;
42192;SDS011;52467;40.114;18.306;2023-03-11T15:06:08;9.45;;;1.65;;
42192;SDS011;52467;40.114;18.306;2023-03-11T15:08:47;11.00;;;1.70;;
42192;SDS011;52467;40.114;18.306;2023-03-11T15:11:19;8.43;;;1.80;;
42192;SDS011;52467;40.114;18.306;2023-03-11T15:13:48;13.80;;;2.65;;
42192;SDS011;52467;40.114;18.306;2023-03-11T15:16:35;8.77;;;1.80;;
42192;SDS011;52467;40.114;18.306;2023-03-11T15:22:05;6.47;;;1.40;;
42192;SDS011;52467;40.114;18.306;2023-03-11T15:24:58;10.57;;;1.60;;
42192;SDS011;52467;40.114;18.306;2023-03-11T15:27:31;8.25;;;2.00;;
42192;SDS011;52467;40.114;18.306;2023-03-11T15:30:00;12.38;;;1.85;;
42192;SDS011;52467;40.114;18.306;2023-03-11T15:35:02;8.45;;;2.35;;
42192;SDS011;52467;40.114;18.306;2023-03-11T15:37:41;10.55;;;3.38;;
42192;SDS011;52467;40.114;18.306;2023-03-11T15:45:50;10.95;;;3.00;;
42192;SDS011;52467;40.114;18.306;2023-03-11T15:48:20;12.50;;;2.90;;
42192;SDS011;52467;40.114;18.306;2023-03-11T15:50:49;16.42;;;3.03;;
42192;SDS011;52467;40.114;18.306;2023-03-11T15:53:20;8.23;;;2.08;;
42192;SDS011;52467;40.114;18.306;2023-03-11T15:55:48;13.73;;;2.65;;
42192;SDS011;52467;40.114;18.306;2023-03-11T15:58:17;14.00;;;3.00;;
42192;SDS011;52467;40.114;18.306;2023-03-11T16:00:46;14.05;;;3.00;;
42192;SDS011;52467;40.114;18.306;2023-03-11T16:03:18;15.50;;;4.32;;
42192;SDS011;52467;40.114;18.306;2023-03-11T16:05:46;13.88;;;3.17;;
42192;SDS011;52467;40.114;18.306;2023-03-11T16:08:13;14.32;;;3.53;;
42192;SDS011;52467;40.114;18.306;2023-03-11T16:10:41;14.95;;;4.45;;
42192;SDS011;52467;40.114;18.306;2023-03-11T16:13:10;11.68;;;3.47;;
42192;SDS011;52467;40.114;18.306;2023-03-11T16:15:39;17.20;;;3.70;;
42192;SDS011;52467;40.114;18.306;2023-03-11T16:18:08;20.02;;;4.13;;
42192;SDS011;52467;40.114;18.306;2023-03-11T16:20:37;38.17;;;5.45;;
42192;SDS011;52467;40.114;18.306;2023-03-11T16:23:20;42.90;;;5.60;;
42192;SDS011;52467;40.114;18.306;2023-03-11T16:25:49;20.67;;;4.72;;
42192;SDS011;52467;40.114;18.306;2023-03-11T16:28:18;25.95;;;4.63;;
42192;SDS011;52467;40.114;18.306;2023-03-11T16:30:45;19.92;;;4.00;;
42192;SDS011;52467;40.114;18.306;2023-03-11T16:33:16;22.25;;;4.00;;
42192;SDS011;52467;40.114;18.306;2023-03-11T16:35:43;25.75;;;5.05;;
42192;SDS011;52467;40.114;18.306;2023-03-11T16:38:10;33.45;;;5.32;;
42192;SDS011;52467;40.114;18.306;2023-03-11T16:40:38;22.92;;;5.22;;
42192;SDS011;52467;40.114;18.306;2023-03-11T16:43:06;25.40;;;6.30;;
42192;SDS011;52467;40.114;18.306;2023-03-11T16:45:35;34.03;;;6.85;;